^^
Saratoga-Weather Station Historical Data
Daily Summary for June 7, 2020 Units:  English    Metric   Both
Daily Weekly Monthly Yearly Custom
  High: Low: Average:
Temperature: 53.4 °F 37.8 °F 43.9 °F
Dew Point: 47.3 °F 36.5 °F 41.4 °F
Humidity: 96% 76% 91%
Wind Speed: 6mph 0mph 0.4mph
Wind Gust: 7mph - -
Wind- - East
Pressure: 30.3 in 30.2 in -
Precipitation: 0 in    
Historical Graphs
 
 
Tabular Data for June 7, 2020
Time Temperature Dew Point Pressure Wind Wind Speed Wind Gust Humidity Rainfall Rate (Hourly) solar
00:00 39.6 °F 37.9 °F 30.3 in Calm     94% 0 in 0 W/m2
00:06 39.6 °F 37.9 °F 30.3 in Calm     94% 0 in 0 W/m2
00:11 39.6 °F 37.9 °F 30.3 in Calm     94% 0 in 0 W/m2
00:16 39.4 °F 37.8 °F 30.3 in Calm     94% 0 in 0 W/m2
00:21 39.4 °F 37.8 °F 30.3 in Calm     94% 0 in 0 W/m2
00:26 39.2 °F 37.6 °F 30.3 in Calm     94% 0 in 0 W/m2
00:31 39.2 °F 37.6 °F 30.3 in Calm     94% 0 in 0 W/m2
00:36 39.2 °F 37.6 °F 30.3 in Calm     94% 0 in 0 W/m2
00:41 39.4 °F 37.8 °F 30.3 in Calm     94% 0 in 0 W/m2
00:46 39.4 °F 38.1 °F 30.3 in Calm     95% 0 in 0 W/m2
00:51 39.6 °F 38.3 °F 30.3 in Calm     95% 0 in 0 W/m2
00:56 39.7 °F 38.5 °F 30.3 in East 0.9 mph 2 mph 95% 0 in 0 W/m2
01:02 39.7 °F 38.5 °F 30.3 in ESE 0.9 mph 2 mph 95% 0 in 0 W/m2
01:07 39.7 °F 38.1 °F 30.3 in ESE 3 mph 3 mph 94% 0 in 0 W/m2
01:12 39.7 °F 38.1 °F 30.3 in Calm   1 mph 94% 0 in 0 W/m2
01:17 39.7 °F 38.1 °F 30.3 in ESE 0.9 mph 2 mph 94% 0 in 0 W/m2
01:22 39.7 °F 38.1 °F 30.3 in Calm     94% 0 in 0 W/m2
01:27 39.7 °F 38.1 °F 30.3 in Calm   2 mph 94% 0 in 0 W/m2
01:32 39.6 °F 37.9 °F 30.3 in Calm   1 mph 94% 0 in 0 W/m2
01:37 39.6 °F 37.9 °F 30.3 in Calm   1 mph 94% 0 in 0 W/m2
01:42 39.6 °F 37.9 °F 30.3 in Calm   2 mph 94% 0 in 0 W/m2
01:47 39.6 °F 37.9 °F 30.3 in Calm   1 mph 94% 0 in 0 W/m2
01:52 39.6 °F 37.9 °F 30.3 in Calm   2 mph 94% 0 in 0 W/m2
01:57 39.6 °F 37.9 °F 30.3 in Calm   1 mph 94% 0 in 0 W/m2
02:02 39.6 °F 37.9 °F 30.3 in Calm   2 mph 94% 0 in 0 W/m2
02:07 39.4 °F 37.8 °F 30.3 in Calm     94% 0 in 0 W/m2
02:12 39.4 °F 37.8 °F 30.3 in Calm     94% 0 in 0 W/m2
02:17 39.4 °F 37.8 °F 30.3 in Calm   1 mph 94% 0 in 0 W/m2
02:22 39.2 °F 37.6 °F 30.3 in Calm   2 mph 94% 0 in 0 W/m2
02:27 39.2 °F 37.6 °F 30.3 in ESE 0.9 mph 2 mph 94% 0 in 0 W/m2
02:32 39.2 °F 37.6 °F 30.3 in Calm     94% 0 in 0 W/m2
02:37 39 °F 37.4 °F 30.3 in Calm     94% 0 in 0 W/m2
02:42 39 °F 37.4 °F 30.3 in Calm     94% 0 in 0 W/m2
02:47 39 °F 37.4 °F 30.3 in Calm     94% 0 in 0 W/m2
02:52 39 °F 37.4 °F 30.3 in Calm     94% 0 in 0 W/m2
02:57 38.8 °F 37.2 °F 30.3 in ESE 2 mph 2 mph 94% 0 in 0 W/m2
03:02 38.8 °F 37.6 °F 30.3 in Calm   2 mph 95% 0 in 0 W/m2
03:08 38.8 °F 37.6 °F 30.3 in ESE 0.9 mph 2 mph 95% 0 in 0 W/m2
03:13 38.8 °F 37.6 °F 30.3 in Calm   1 mph 95% 0 in 0 W/m2
03:18 38.8 °F 37.6 °F 30.3 in ESE 0.9 mph 2 mph 95% 0 in 0 W/m2
03:23 38.8 °F 37.2 °F 30.3 in Calm     94% 0 in 0 W/m2
03:28 38.8 °F 37.2 °F 30.3 in Calm     94% 0 in 0 W/m2
03:33 38.8 °F 37.2 °F 30.3 in Calm     94% 0 in 0 W/m2
03:38 38.7 °F 37 °F 30.3 in Calm     94% 0 in 0 W/m2
03:43 38.7 °F 37.4 °F 30.3 in Calm     95% 0 in 0 W/m2
03:48 38.7 °F 37.4 °F 30.3 in Calm     95% 0 in 0 W/m2
03:53 38.7 °F 37.4 °F 30.3 in Calm     95% 0 in 0 W/m2
03:58 38.7 °F 37.4 °F 30.3 in Calm     95% 0 in 0 W/m2
04:03 38.7 °F 37.4 °F 30.3 in Calm     95% 0 in 0 W/m2
04:08 38.7 °F 37.4 °F 30.3 in Calm     95% 0 in 0 W/m2
04:13 38.7 °F 37.4 °F 30.3 in Calm     95% 0 in 0 W/m2
04:18 38.7 °F 37.4 °F 30.3 in Calm   1 mph 95% 0 in 0 W/m2
04:23 38.7 °F 37.4 °F 30.3 in Calm     95% 0 in 0 W/m2
04:28 38.7 °F 37.4 °F 30.3 in ESE 0.9 mph 2 mph 95% 0 in 0 W/m2
04:33 38.7 °F 37.4 °F 30.3 in Calm     95% 0 in 0 W/m2
04:38 38.7 °F 37.4 °F 30.3 in Calm   2 mph 95% 0 in 0 W/m2
04:43 38.5 °F 37.2 °F 30.3 in Calm     95% 0 in 0 W/m2
04:48 38.5 °F 37.2 °F 30.3 in Calm   1 mph 95% 0 in 0 W/m2
04:53 38.5 °F 37.2 °F 30.3 in Calm     95% 0 in 0 W/m2
04:58 38.3 °F 37 °F 30.3 in Calm   1 mph 95% 0 in 0 W/m2
05:03 38.5 °F 37.2 °F 30.3 in Calm     95% 0 in 0 W/m2
05:08 38.3 °F 37 °F 30.3 in Calm   1 mph 95% 0 in 0 W/m2
05:13 38.5 °F 37.2 °F 30.3 in Calm     95% 0 in 0 W/m2
05:18 38.5 °F 37.2 °F 30.3 in Calm     95% 0 in 0 W/m2
05:23 38.7 °F 37.4 °F 30.3 in Calm     95% 0 in 0 W/m2
05:28 38.7 °F 37.4 °F 30.3 in Calm     95% 0 in 0 W/m2
05:33 38.7 °F 37.4 °F 30.3 in Calm     95% 0 in 0 W/m2
05:38 38.7 °F 37.4 °F 30.3 in Calm     95% 0 in 0 W/m2
05:43 38.5 °F 37.2 °F 30.3 in Calm     95% 0 in 0 W/m2
05:48 38.5 °F 37.2 °F 30.3 in Calm     95% 0 in 0 W/m2
05:53 38.5 °F 37.2 °F 30.3 in Calm     95% 0 in 0 W/m2
05:58 38.5 °F 37.2 °F 30.3 in Calm     95% 0 in 0 W/m2
06:03 38.5 °F 37.2 °F 30.3 in Calm     95% 0 in 0 W/m2
06:08 38.5 °F 37.2 °F 30.3 in Calm     95% 0 in 0 W/m2
06:13 38.5 °F 37.2 °F 30.3 in Calm     95% 0 in 0 W/m2
06:18 38.5 °F 37.2 °F 30.3 in Calm     95% 0 in 0 W/m2
06:23 38.5 °F 37.2 °F 30.3 in Calm     95% 0 in 0 W/m2
06:28 38.5 °F 37.2 °F 30.3 in Calm     95% 0 in 0 W/m2
06:33 38.5 °F 37.2 °F 30.3 in Calm     95% 0 in 0 W/m2
06:39 38.3 °F 37 °F 30.3 in Calm     95% 0 in 0 W/m2
06:44 38.1 °F 36.9 °F 30.3 in Calm     95% 0 in 0 W/m2
06:49 38.1 °F 36.9 °F 30.3 in Calm     95% 0 in 0 W/m2
06:54 37.9 °F 36.7 °F 30.3 in Calm     95% 0 in 0 W/m2
06:59 37.8 °F 36.5 °F 30.3 in Calm     95% 0 in 0 W/m2
07:04 37.8 °F 36.5 °F 30.3 in Calm     95% 0 in 0 W/m2
07:09 37.8 °F 36.5 °F 30.3 in Calm     95% 0 in 0 W/m2
07:14 37.8 °F 36.5 °F 30.3 in Calm     95% 0 in 0 W/m2
07:19 37.8 °F 36.5 °F 30.3 in Calm     95% 0 in 0 W/m2
07:24 37.8 °F 36.7 °F 30.3 in Calm     96% 0 in 0 W/m2
07:29 37.9 °F 36.9 °F 30.3 in Calm     96% 0 in 0 W/m2
07:34 37.9 °F 36.9 °F 30.3 in Calm     96% 0 in 0 W/m2
07:39 38.1 °F 37 °F 30.3 in Calm     96% 0 in 5 W/m2
07:44 38.1 °F 37 °F 30.3 in Calm     96% 0 in 7 W/m2
07:49 38.1 °F 37 °F 30.3 in Calm     96% 0 in 9 W/m2
07:54 38.1 °F 37 °F 30.3 in Calm     96% 0 in 12 W/m2
07:59 38.1 °F 37 °F 30.3 in Calm     96% 0 in 16 W/m2
08:04 38.3 °F 37.2 °F 30.3 in Calm   2 mph 96% 0 in 18 W/m2
08:09 38.5 °F 37.4 °F 30.3 in ESE 2 mph 2 mph 96% 0 in 21 W/m2
08:14 38.7 °F 37.6 °F 30.3 in Calm     96% 0 in 25 W/m2
08:19 38.8 °F 37.8 °F 30.3 in Calm   2 mph 96% 0 in 26 W/m2
08:24 39 °F 37.9 °F 30.3 in Calm     96% 0 in 30 W/m2
08:29 39 °F 37.9 °F 30.3 in Calm   1 mph 96% 0 in 33 W/m2
08:34 39.4 °F 38.3 °F 30.3 in Calm     96% 0 in 35 W/m2
08:39 39.4 °F 38.3 °F 30.3 in Calm     96% 0 in 39 W/m2
08:44 39.6 °F 38.5 °F 30.3 in Calm   2 mph 96% 0 in 42 W/m2
08:55 39.7 °F 38.7 °F 30.3 in Calm   1 mph 96% 0 in 58 W/m2
09:00 39.9 °F 38.8 °F 30.3 in Calm     96% 0 in 49 W/m2
09:05 40.1 °F 39 °F 30.3 in ENE 2 mph 2 mph 96% 0 in 51 W/m2
09:10 40.3 °F 39.2 °F 30.3 in East 0.9 mph 2 mph 96% 0 in 53 W/m2
09:15 40.5 °F 39.4 °F 30.3 in Calm   1 mph 96% 0 in 54 W/m2
09:20 40.5 °F 39.4 °F 30.3 in East 0.9 mph 1 mph 96% 0 in 56 W/m2
09:25 40.6 °F 39.6 °F 30.3 in East 0.9 mph 1 mph 96% 0 in 58 W/m2
09:30 41 °F 39.9 °F 30.3 in Calm   3 mph 96% 0 in 58 W/m2
09:35 41.4 °F 40.3 °F 30.3 in Calm     96% 0 in 62 W/m2
09:40 41.5 °F 40.5 °F 30.3 in East 0.9 mph 1 mph 96% 0 in 62 W/m2
09:45 41.7 °F 40.6 °F 30.3 in Calm   1 mph 96% 0 in 63 W/m2
09:50 42.1 °F 41 °F 30.3 in Calm   2 mph 96% 0 in 63 W/m2
09:55 42.3 °F 41 °F 30.3 in Calm   2 mph 95% 0 in 65 W/m2
10:00 42.4 °F 41.2 °F 30.3 in SE 2.9 mph 3 mph 95% 0 in 69 W/m2
10:05 42.8 °F 41.5 °F 30.3 in SE 0.9 mph 1 mph 95% 0 in 76 W/m2
10:10 43 °F 41.7 °F 30.3 in ESE 0.9 mph 3 mph 95% 0 in 70 W/m2
10:15 43.3 °F 41.7 °F 30.3 in East 2.9 mph 3 mph 94% 0 in 69 W/m2
10:20 43.7 °F 42.1 °F 30.3 in ESE 0.9 mph 2 mph 94% 0 in 70 W/m2
10:25 44.1 °F 42.1 °F 30.3 in ESE 2.9 mph 4 mph 93% 0 in 77 W/m2
10:30 44.2 °F 42.3 °F 30.3 in NE 2 mph 3 mph 93% 0 in 67 W/m2
10:35 44.8 °F 42.6 °F 30.3 in ESE 2.9 mph 3 mph 92% 0 in 74 W/m2
10:40 45 °F 42.4 °F 30.3 in ENE 0.9 mph 4 mph 91% 0 in 76 W/m2
10:45 45.1 °F 42.4 °F 30.3 in Calm   1 mph 90% 0 in 88 W/m2
10:50 45.3 °F 42.3 °F 30.3 in ENE 0.9 mph 7 mph 89% 0 in 79 W/m2
10:55 45.7 °F 42.6 °F 30.3 in Calm   3 mph 89% 0 in 84 W/m2
11:00 45.9 °F 42.8 °F 30.3 in East 0.9 mph 6 mph 89% 0 in 91 W/m2
11:05 46 °F 43 °F 30.3 in ESE 2 mph 3 mph 89% 0 in 102 W/m2
11:10 46.2 °F 42.8 °F 30.3 in Calm   4 mph 88% 0 in 104 W/m2
11:15 46.6 °F 43.2 °F 30.3 in Calm   1 mph 88% 0 in 104 W/m2
11:20 46.9 °F 43.3 °F 30.3 in East 0.9 mph 4 mph 87% 0 in 100 W/m2
11:25 47.1 °F 43.5 °F 30.3 in ESE 0.9 mph 3 mph 87% 0 in 100 W/m2
11:30 47.3 °F 43.3 °F 30.3 in East 2.9 mph 4 mph 86% 0 in 102 W/m2
11:36 47.7 °F 43.3 °F 30.3 in Calm   7 mph 85% 0 in 95 W/m2
11:41 47.7 °F 43.3 °F 30.3 in ESE 2 mph 3 mph 85% 0 in 86 W/m2
11:46 47.8 °F 43.5 °F 30.3 in ENE 2 mph 2 mph 85% 0 in 105 W/m2
11:51 48 °F 43.3 °F 30.3 in NNE 2 mph 2 mph 84% 0 in 83 W/m2
11:56 48.4 °F 43.7 °F 30.3 in NE 0.9 mph 4 mph 84% 0 in 84 W/m2
12:01 48.6 °F 43.9 °F 30.3 in NE 0.9 mph 4 mph 84% 0 in 88 W/m2
12:06 48.7 °F 44.1 °F 30.3 in Calm   2 mph 84% 0 in 98 W/m2
12:11 48.7 °F 43.9 °F 30.3 in ESE 2.9 mph 5 mph 83% 0 in 79 W/m2
12:16 48.9 °F 44.1 °F 30.3 in SE 0.9 mph 3 mph 83% 0 in 79 W/m2
12:21 49.1 °F 44.2 °F 30.3 in Calm   2 mph 83% 0 in 72 W/m2
12:26 49.3 °F 44.1 °F 30.2 in SE 2 mph 3 mph 82% 0 in 77 W/m2
12:31 49.5 °F 44.2 °F 30.2 in East 0.9 mph 4 mph 82% 0 in 74 W/m2
12:36 49.6 °F 44.4 °F 30.2 in Calm   1 mph 82% 0 in 72 W/m2
12:41 49.8 °F 44.6 °F 30.2 in SE 2 mph 4 mph 82% 0 in 70 W/m2
12:46 50 °F 44.8 °F 30.2 in East 2.9 mph 3 mph 82% 0 in 69 W/m2
12:51 50.2 °F 44.6 °F 30.2 in SSE 0.9 mph 4 mph 81% 0 in 72 W/m2
12:56 50.4 °F 44.8 °F 30.2 in ESE 0.9 mph 3 mph 81% 0 in 74 W/m2
13:01 50.5 °F 45 °F 30.2 in ESE 0.9 mph 2 mph 81% 0 in 83 W/m2
13:06 50.7 °F 45.1 °F 30.2 in SE 2 mph 4 mph 81% 0 in 97 W/m2
13:11 51.1 °F 45.1 °F 30.2 in NE 0.9 mph 3 mph 80% 0 in 72 W/m2
13:16 51.3 °F 45.3 °F 30.2 in Calm   3 mph 80% 0 in 69 W/m2
13:21 51.3 °F 45.3 °F 30.2 in Calm   2 mph 80% 0 in 72 W/m2
13:26 51.4 °F 45.5 °F 30.2 in SE 0.9 mph 3 mph 80% 0 in 74 W/m2
13:31 51.4 °F 45.5 °F 30.2 in East 0.9 mph 1 mph 80% 0 in 83 W/m2
13:36 51.6 °F 45.7 °F 30.2 in ENE 2 mph 3 mph 80% 0 in 97 W/m2
13:41 52 °F 46 °F 30.2 in ENE 0.9 mph 5 mph 80% 0 in 105 W/m2
13:46 52.3 °F 46 °F 30.2 in East 2 mph 3 mph 79% 0 in 95 W/m2
13:51 52.3 °F 46 °F 30.2 in East 2 mph 4 mph 79% 0 in 95 W/m2
13:56 52.7 °F 46 °F 30.2 in East 0.9 mph 4 mph 78% 0 in 91 W/m2
14:01 52.9 °F 46.2 °F 30.2 in NE 0.9 mph 3 mph 78% 0 in 88 W/m2
14:06 53.1 °F 46.4 °F 30.2 in ENE 2 mph 3 mph 78% 0 in 81 W/m2
14:11 53.2 °F 46.6 °F 30.2 in ENE 2.9 mph 3 mph 78% 0 in 81 W/m2
14:16 53.2 °F 46.2 °F 30.2 in Calm   1 mph 77% 0 in 70 W/m2
14:21 53.4 °F 46.4 °F 30.2 in Calm   2 mph 77% 0 in 67 W/m2
14:26 53.4 °F 46 °F 30.2 in ENE 0.9 mph 2 mph 76% 0 in 63 W/m2
14:31 53.4 °F 46.8 °F 30.2 in East 2 mph 2 mph 78% 0 in 67 W/m2
14:36 53.4 °F 47.1 °F 30.2 in ENE 0.9 mph 1 mph 79% 0 in 67 W/m2
14:41 53.2 °F 46.9 °F 30.2 in Calm     79% 0 in 65 W/m2
14:46 53.1 °F 47.1 °F 30.2 in Calm   3 mph 80% 0 in 63 W/m2
14:51 53.1 °F 47.1 °F 30.2 in ENE 0.9 mph 2 mph 80% 0 in 60 W/m2
14:56 52.9 °F 46.9 °F 30.2 in East 6 mph 6 mph 80% 0 in 58 W/m2
15:01 52.9 °F 47.3 °F 30.2 in Calm     81% 0 in 60 W/m2
15:07 52.5 °F 46.9 °F 30.2 in Calm   2 mph 81% 0 in 58 W/m2
15:12 52.5 °F 46.9 °F 30.2 in ESE 0.9 mph 1 mph 81% 0 in 54 W/m2
15:17 52.3 °F 46.9 °F 30.2 in Calm   1 mph 82% 0 in 51 W/m2
15:22 52.2 °F 46.8 °F 30.2 in Calm     82% 0 in 47 W/m2
15:27 52 °F 46.9 °F 30.2 in Calm     83% 0 in 46 W/m2
15:32 51.8 °F 46.8 °F 30.2 in Calm     83% 0 in 44 W/m2
15:37 51.4 °F 46.8 °F 30.2 in Calm     84% 0 in 44 W/m2
15:42 51.3 °F 46.6 °F 30.2 in ESE 0.9 mph 2 mph 84% 0 in 44 W/m2
15:47 51.3 °F 46.9 °F 30.2 in Calm   1 mph 85% 0 in 46 W/m2
15:52 50.9 °F 46.6 °F 30.2 in Calm   1 mph 85% 0 in 47 W/m2
15:57 50.7 °F 46.8 °F 30.2 in Calm     86% 0 in 47 W/m2
16:02 50.7 °F 46.8 °F 30.2 in ESE 0.9 mph 1 mph 86% 0 in 47 W/m2
16:07 50.5 °F 46.6 °F 30.2 in Calm     86% 0 in 46 W/m2
16:12 50.5 °F 46.6 °F 30.2 in Calm   1 mph 86% 0 in 40 W/m2
16:17 50.4 °F 46.4 °F 30.2 in ESE 0.9 mph 1 mph 86% 0 in 35 W/m2
16:22 50.4 °F 46.6 °F 30.2 in ESE 0.9 mph 1 mph 87% 0 in 30 W/m2
16:27 50.2 °F 46.4 °F 30.2 in Calm     87% 0 in 26 W/m2
16:32 50 °F 46.2 °F 30.2 in ESE 0.9 mph 1 mph 87% 0 in 23 W/m2
16:37 49.8 °F 46 °F 30.2 in ESE 0.9 mph 1 mph 87% 0 in 19 W/m2
16:42 49.8 °F 46 °F 30.2 in ESE 0.9 mph 2 mph 87% 0 in 16 W/m2
16:47 49.6 °F 45.9 °F 30.2 in ESE 0.9 mph 1 mph 87% 0 in 11 W/m2
16:52 49.5 °F 46 °F 30.2 in ESE 0.9 mph 1 mph 88% 0 in 7 W/m2
16:57 49.3 °F 45.9 °F 30.2 in ESE 0.9 mph 1 mph 88% 0 in 5 W/m2
17:02 49.1 °F 45.7 °F 30.2 in Calm   1 mph 88% 0 in 0 W/m2
17:07 48.7 °F 45.3 °F 30.2 in Calm     88% 0 in 0 W/m2
17:12 48.6 °F 45.1 °F 30.2 in ESE 0.9 mph 1 mph 88% 0 in 0 W/m2
17:17 48.4 °F 45.3 °F 30.2 in Calm     89% 0 in 0 W/m2
17:23 48 °F 45 °F 30.2 in Calm     89% 0 in 0 W/m2
17:28 47.8 °F 44.8 °F 30.2 in Calm     89% 0 in 0 W/m2
17:33 47.7 °F 44.6 °F 30.2 in ESE 0.9 mph 1 mph 89% 0 in 0 W/m2
17:38 47.7 °F 45 °F 30.2 in Calm   1 mph 90% 0 in 0 W/m2
17:43 47.5 °F 44.8 °F 30.2 in Calm     90% 0 in 0 W/m2
17:48 47.1 °F 44.4 °F 30.2 in Calm   1 mph 90% 0 in 0 W/m2
17:53 47.1 °F 44.6 °F 30.2 in Calm   1 mph 91% 0 in 0 W/m2
17:58 47.1 °F 44.6 °F 30.2 in Calm     91% 0 in 0 W/m2
18:03 46.9 °F 44.4 °F 30.2 in Calm     91% 0 in 0 W/m2
18:08 46.9 °F 44.4 °F 30.2 in Calm     91% 0 in 0 W/m2
18:13 46.8 °F 44.2 °F 30.2 in Calm     91% 0 in 0 W/m2
18:18 46.8 °F 44.2 °F 30.2 in Calm     91% 0 in 0 W/m2
18:23 46.6 °F 44.1 °F 30.2 in Calm     91% 0 in 0 W/m2
18:28 46.4 °F 43.9 °F 30.2 in Calm     91% 0 in 0 W/m2
18:33 46.2 °F 44.1 °F 30.2 in Calm     92% 0 in 0 W/m2
18:38 46.2 °F 44.1 °F 30.2 in Calm     92% 0 in 0 W/m2
18:43 46 °F 43.9 °F 30.2 in Calm     92% 0 in 0 W/m2
18:48 45.9 °F 43.7 °F 30.2 in Calm     92% 0 in 0 W/m2
18:53 45.9 °F 43.7 °F 30.2 in Calm     92% 0 in 0 W/m2
18:58 45.9 °F 43.9 °F 30.2 in Calm     93% 0 in 0 W/m2
19:03 45.7 °F 43.7 °F 30.2 in Calm     93% 0 in 0 W/m2
19:08 45.7 °F 43.7 °F 30.2 in Calm     93% 0 in 0 W/m2
19:13 45.5 °F 43.5 °F 30.2 in Calm     93% 0 in 0 W/m2
19:18 45.3 °F 43.3 °F 30.2 in Calm     93% 0 in 0 W/m2
19:23 45.3 °F 43.3 °F 30.2 in Calm     93% 0 in 0 W/m2
19:28 45.3 °F 43.3 °F 30.2 in Calm     93% 0 in 0 W/m2
19:33 45.1 °F 43.5 °F 30.2 in Calm     94% 0 in 0 W/m2
19:38 45.1 °F 43.5 °F 30.2 in Calm     94% 0 in 0 W/m2
19:43 45.1 °F 43.2 °F 30.2 in Calm     93% 0 in 0 W/m2
19:48 45 °F 43.3 °F 30.2 in Calm     94% 0 in 0 W/m2
19:53 45 °F 43.3 °F 30.2 in Calm     94% 0 in 0 W/m2
19:58 45 °F 43.3 °F 30.2 in Calm     94% 0 in 0 W/m2
20:03 44.8 °F 43.2 °F 30.2 in Calm     94% 0 in 0 W/m2
20:08 44.8 °F 43.2 °F 30.2 in Calm     94% 0 in 0 W/m2
20:13 44.6 °F 43 °F 30.2 in Calm     94% 0 in 0 W/m2
20:18 44.4 °F 42.8 °F 30.2 in Calm     94% 0 in 0 W/m2
20:23 44.4 °F 42.8 °F 30.2 in Calm     94% 0 in 0 W/m2
20:28 44.2 °F 42.6 °F 30.2 in Calm     94% 0 in 0 W/m2
20:33 44.1 °F 42.4 °F 30.2 in Calm     94% 0 in 0 W/m2
20:39 44.1 °F 42.4 °F 30.2 in Calm     94% 0 in 0 W/m2
20:44 43.9 °F 42.3 °F 30.2 in Calm     94% 0 in 0 W/m2
20:49 43.9 °F 42.3 °F 30.2 in Calm     94% 0 in 0 W/m2
20:54 43.9 °F 42.6 °F 30.2 in Calm     95% 0 in 0 W/m2
20:59 43.9 °F 42.6 °F 30.2 in Calm     95% 0 in 0 W/m2
21:04 44.1 °F 42.8 °F 30.2 in Calm     95% 0 in 0 W/m2
21:09 43.9 °F 42.6 °F 30.2 in Calm     95% 0 in 0 W/m2
21:14 43.9 °F 42.6 °F 30.2 in Calm     95% 0 in 0 W/m2
21:19 43.9 °F 42.6 °F 30.2 in Calm     95% 0 in 0 W/m2
21:24 43.9 °F 42.6 °F 30.2 in Calm     95% 0 in 0 W/m2
21:29 43.9 °F 42.6 °F 30.2 in Calm     95% 0 in 0 W/m2
21:34 43.9 °F 42.6 °F 30.2 in Calm     95% 0 in 0 W/m2
21:39 43.9 °F 42.6 °F 30.2 in Calm     95% 0 in 0 W/m2
21:44 43.9 °F 42.6 °F 30.2 in Calm     95% 0 in 0 W/m2
21:49 43.9 °F 42.6 °F 30.2 in Calm     95% 0 in 0 W/m2
21:54 43.7 °F 42.4 °F 30.2 in Calm     95% 0 in 0 W/m2
21:59 43.5 °F 42.3 °F 30.2 in Calm     95% 0 in 0 W/m2
22:04 43.5 °F 42.3 °F 30.2 in Calm     95% 0 in 0 W/m2
22:09 43.3 °F 42.1 °F 30.2 in Calm     95% 0 in 0 W/m2
22:14 43.3 °F 42.1 °F 30.2 in Calm     95% 0 in 0 W/m2
22:19 43.3 °F 42.1 °F 30.2 in Calm     95% 0 in 0 W/m2
22:24 43.3 °F 42.1 °F 30.2 in Calm     95% 0 in 0 W/m2
22:29 43.2 °F 41.9 °F 30.2 in Calm     95% 0 in 0 W/m2
22:34 43.2 °F 41.9 °F 30.2 in Calm     95% 0 in 0 W/m2
22:39 43.2 °F 41.9 °F 30.2 in Calm     95% 0 in 0 W/m2
22:44 43 °F 41.7 °F 30.2 in Calm     95% 0 in 0 W/m2
22:49 43 °F 41.7 °F 30.2 in Calm     95% 0 in 0 W/m2
22:54 42.8 °F 41.5 °F 30.2 in Calm     95% 0 in 0 W/m2
22:59 42.8 °F 41.5 °F 30.2 in Calm     95% 0 in 0 W/m2
23:04 42.6 °F 41.4 °F 30.2 in Calm     95% 0 in 0 W/m2
23:09 42.6 °F 41.4 °F 30.2 in Calm     95% 0 in 0 W/m2
23:14 42.6 °F 41.4 °F 30.2 in Calm     95% 0 in 0 W/m2
23:19 42.6 °F 41.5 °F 30.2 in Calm     96% 0 in 0 W/m2
23:24 42.6 °F 41.5 °F 30.2 in Calm     96% 0 in 0 W/m2
23:29 42.4 °F 41.4 °F 30.2 in Calm     96% 0 in 0 W/m2
23:34 42.4 °F 41.4 °F 30.2 in Calm     96% 0 in 0 W/m2
23:39 42.4 °F 41.4 °F 30.2 in Calm     96% 0 in 0 W/m2
23:44 42.4 °F 41.4 °F 30.2 in Calm     96% 0 in 0 W/m2
23:49 42.6 °F 41.5 °F 30.2 in Calm     96% 0 in 0 W/m2
23:54 42.6 °F 41.5 °F 30.2 in Calm     96% 0 in 0 W/m2
23:59 42.6 °F 41.5 °F 30.2 in Calm     96% 0 in 0 W/m2
Juneau County Weather
Compliments of Weather Underground - 4 mb